Time;durP1;ratioP1;P1;durP2;ratioP2;P2;SDS_P1;SDS_P2;PMS_P1;PMS_P2;Temp;Humidity;BMP_temperature;BMP_pressure;BME280_temperature;BME280_humidity;BME280_pressure;Samples;Min_cycle;Max_cycle;Signal;HPM_P1;HPM_P2
2021/09/11 00:00:52;;;;;;;1073.47;971.42;;;;;;;;;;5004589;28;20441;-81
2021/09/11 00:03:18;;;;;;;1079.45;976.97;;;;;;;;;;5028671;28;20085;-80
2021/09/11 00:05:44;;;;;;;1065.80;964.08;;;;;;;;;;5010179;28;20056;-80
2021/09/11 00:08:10;;;;;;;1070.20;968.20;;;;;;;;;;5020502;28;20459;-80
2021/09/11 00:10:36;;;;;;;1063.15;961.40;;;;;;;;;;5025258;28;20087;-81
2021/09/11 00:13:03;;;;;;;1069.82;967.83;;;;;;;;;;5025050;28;20026;-81
2021/09/11 00:15:31;;;;;;;1066.55;964.60;;;;;;;;;;5008857;28;20049;-81
2021/09/11 00:18:01;;;;;;;1066.25;964.38;;;;;;;;;;5029390;28;20018;-80
2021/09/11 00:20:28;;;;;;;1063.47;962.03;;;;;;;;;;5014628;28;20026;-80
2021/09/11 00:22:54;;;;;;;1067.28;965.28;;;;;;;;;;5028771;28;20052;-80
2021/09/11 00:25:21;;;;;;;1073.57;971.42;;;;;;;;;;5017831;28;20124;-80
2021/09/11 00:27:47;;;;;;;1076.40;973.83;;;;;;;;;;5018555;28;20030;-80
2021/09/11 00:30:13;;;;;;;1067.05;965.13;;;;;;;;;;5024224;28;20029;-80
2021/09/11 00:32:45;;;;;;;1068.70;966.17;;;;;;;;;;5017652;28;20350;-80
2021/09/11 00:35:14;;;;;;;1060.60;958.92;;;;;;;;;;5025961;28;20021;-80
2021/09/11 00:37:40;;;;;;;1063.75;961.28;;;;;;;;;;5029100;28;20551;-80
2021/09/11 00:40:07;;;;;;;1064.32;962.17;;;;;;;;;;5012038;28;20033;-80
2021/09/11 00:42:33;;;;;;;1060.95;959.20;;;;;;;;;;5017079;28;20029;-80
2021/09/11 00:44:59;;;;;;;1057.75;956.17;;;;;;;;;;5020480;28;20136;-80
2021/09/11 00:47:25;;;;;;;1056.88;955.20;;;;;;;;;;5023071;28;20056;-80
2021/09/11 00:49:51;;;;;;;1058.43;956.63;;;;;;;;;;5024206;28;20061;-80
2021/09/11 00:52:17;;;;;;;1058.93;957.13;;;;;;;;;;5029185;28;20025;-80
2021/09/11 00:54:43;;;;;;;1052.75;951.17;;;;;;;;;;5017555;28;20036;-79
2021/09/11 00:57:09;;;;;;;1048.22;946.83;;;;;;;;;;5011150;28;20049;-79
2021/09/11 00:59:35;;;;;;;1047.80;946.30;;;;;;;;;;5022380;28;20446;-79
2021/09/11 01:02:02;;;;;;;1043.47;942.35;;;;;;;;;;5025336;28;20033;-79
2021/09/11 01:04:28;;;;;;;1051.28;949.50;;;;;;;;;;5023164;28;20025;-78
2021/09/11 01:06:54;;;;;;;1041.95;940.63;;;;;;;;;;5028539;28;20033;-79
2021/09/11 01:09:20;;;;;;;1042.35;941.10;;;;;;;;;;5019758;28;20030;-79
2021/09/11 01:11:46;;;;;;;1043.35;942.00;;;;;;;;;;5011164;28;20072;-79
2021/09/11 01:14:12;;;;;;;1047.05;945.55;;;;;;;;;;5013755;28;20025;-79
2021/09/11 01:16:38;;;;;;;1037.75;936.65;;;;;;;;;;5013412;28;20496;-79
2021/09/11 01:19:04;;;;;;;1042.90;941.30;;;;;;;;;;5027683;28;20055;-79
2021/09/11 01:21:30;;;;;;;1044.95;943.22;;;;;;;;;;5027383;28;20029;-79
2021/09/11 01:23:56;;;;;;;1036.97;935.65;;;;;;;;;;5015064;28;20034;-78
2021/09/11 01:26:22;;;;;;;1039.15;937.97;;;;;;;;;;5012623;28;20449;-79
2021/09/11 01:28:48;;;;;;;1028.78;928.08;;;;;;;;;;5018473;28;20270;-80
2021/09/11 01:31:15;;;;;;;1029.88;929.20;;;;;;;;;;5008960;28;20529;-79
2021/09/11 01:33:41;;;;;;;1027.90;927.20;;;;;;;;;;5009186;28;20026;-80
2021/09/11 01:36:07;;;;;;;1032.78;931.85;;;;;;;;;;5010738;28;20029;-80
2021/09/11 01:38:33;;;;;;;1030.85;929.88;;;;;;;;;;5027890;28;20060;-79
2021/09/11 01:40:59;;;;;;;1031.32;930.33;;;;;;;;;;5028273;28;20026;-79
2021/09/11 01:43:32;;;;;;;1031.97;930.88;;;;;;;;;;5020507;28;20033;-80
2021/09/11 01:45:59;;;;;;;1032.00;931.05;;;;;;;;;;5027992;28;20041;-79
2021/09/11 01:48:27;;;;;;;1032.70;931.55;;;;;;;;;;5008870;28;20029;-79
2021/09/11 01:50:52;;;;;;;1032.47;931.45;;;;;;;;;;5018062;28;20064;-79
2021/09/11 01:53:20;;;;;;;1023.35;922.97;;;;;;;;;;5008753;28;20071;-79
2021/09/11 01:55:46;;;;;;;1019.45;919.08;;;;;;;;;;5008899;28;20063;-79
2021/09/11 01:58:13;;;;;;;1027.65;926.85;;;;;;;;;;5027340;28;20108;-79
2021/09/11 02:00:39;;;;;;;1027.13;925.95;;;;;;;;;;5008194;28;20025;-79
2021/09/11 02:03:06;;;;;;;1025.93;925.10;;;;;;;;;;5026416;28;20029;-79
2021/09/11 02:05:32;;;;;;;1023.33;922.53;;;;;;;;;;5002940;28;20350;-78
2021/09/11 02:07:59;;;;;;;1021.50;920.70;;;;;;;;;;5014987;28;20026;-79
2021/09/11 02:10:28;;;;;;;1020.22;919.55;;;;;;;;;;5010246;28;20542;-78
2021/09/11 02:12:54;;;;;;;1022.20;921.45;;;;;;;;;;5016121;28;20025;-79
2021/09/11 02:15:20;;;;;;;1017.20;916.70;;;;;;;;;;5027847;28;20027;-79
2021/09/11 02:17:46;;;;;;;1016.35;915.85;;;;;;;;;;5026677;28;20465;-79
2021/09/11 02:20:12;;;;;;;1011.75;911.45;;;;;;;;;;5025734;28;20079;-79
2021/09/11 02:22:40;;;;;;;1015.63;915.15;;;;;;;;;;5012091;28;20064;-79
2021/09/11 02:25:07;;;;;;;1013.63;912.15;;;;;;;;;;5008437;28;20056;-78
2021/09/11 02:27:33;;;;;;;1016.42;915.67;;;;;;;;;;5026888;28;20123;-78
2021/09/11 02:29:59;;;;;;;1021.80;921.10;;;;;;;;;;5015042;28;20044;-78
2021/09/11 02:32:25;;;;;;;1013.10;912.50;;;;;;;;;;5013218;28;20478;-79
2021/09/11 02:34:51;;;;;;;1011.28;910.83;;;;;;;;;;5020581;28;20120;-78
2021/09/11 02:37:17;;;;;;;1013.17;911.65;;;;;;;;;;5026741;28;20020;-77
2021/09/11 02:39:43;;;;;;;1010.30;909.75;;;;;;;;;;5016696;28;20033;-76
2021/09/11 02:42:10;;;;;;;1016.47;915.72;;;;;;;;;;5020623;28;20022;-78
2021/09/11 02:44:36;;;;;;;1010.58;910.17;;;;;;;;;;5008205;28;20062;-79
2021/09/11 02:47:02;;;;;;;1005.38;905.25;;;;;;;;;;5023121;28;20398;-79
2021/09/11 02:49:28;;;;;;;1012.22;911.53;;;;;;;;;;5021975;28;20515;-79
2021/09/11 02:51:54;;;;;;;1004.85;904.30;;;;;;;;;;5020164;28;20211;-79
2021/09/11 02:54:20;;;;;;;999.03;898.95;;;;;;;;;;5014245;28;20116;-78
2021/09/11 02:56:46;;;;;;;1004.55;904.13;;;;;;;;;;5022048;28;20034;-79
2021/09/11 02:59:12;;;;;;;1000.58;900.40;;;;;;;;;;5010866;28;20030;-79
2021/09/11 03:01:37;;;;;;;1003.42;903.17;;;;;;;;;;5006939;28;20029;-78
2021/09/11 03:04:03;;;;;;;1002.88;902.67;;;;;;;;;;5026216;28;20076;-78
2021/09/11 03:06:29;;;;;;;1001.08;900.78;;;;;;;;;;5024263;28;20112;-78
2021/09/11 03:08:56;;;;;;;997.47;897.38;;;;;;;;;;5008687;28;20125;-79
2021/09/11 03:11:22;;;;;;;1001.55;901.33;;;;;;;;;;5015487;28;20022;-79
2021/09/11 03:13:48;;;;;;;1000.03;899.70;;;;;;;;;;5030148;28;20030;-79
2021/09/11 03:16:13;;;;;;;998.75;898.67;;;;;;;;;;5022471;28;20393;-79
2021/09/11 03:18:39;;;;;;;994.05;893.95;;;;;;;;;;5013199;28;20022;-80
2021/09/11 03:21:05;;;;;;;996.25;896.30;;;;;;;;;;5018264;28;20091;-78
2021/09/11 03:23:33;;;;;;;1005.70;905.30;;;;;;;;;;5022123;28;20689;-79
2021/09/11 03:25:59;;;;;;;997.92;897.83;;;;;;;;;;5021229;28;20037;-78
2021/09/11 03:28:25;;;;;;;999.83;899.55;;;;;;;;;;5022145;28;20094;-79
2021/09/11 03:30:51;;;;;;;993.15;893.03;;;;;;;;;;5021620;28;20064;-78
2021/09/11 03:33:17;;;;;;;1004.83;903.92;;;;;;;;;;5030797;28;20025;-78
2021/09/11 03:35:43;;;;;;;1013.40;912.47;;;;;;;;;;5030132;28;20035;-79
2021/09/11 03:38:09;;;;;;;1002.85;902.38;;;;;;;;;;5013334;28;20026;-79
2021/09/11 03:40:35;;;;;;;994.08;894.30;;;;;;;;;;5030310;28;20033;-77
2021/09/11 03:43:01;;;;;;;992.45;892.47;;;;;;;;;;5030315;28;20029;-78
2021/09/11 03:45:27;;;;;;;999.50;898.97;;;;;;;;;;5019482;28;20045;-78
2021/09/11 03:47:53;;;;;;;999.25;898.85;;;;;;;;;;5007600;28;20022;-78
2021/09/11 03:50:19;;;;;;;990.55;890.08;;;;;;;;;;5012657;28;20029;-79
2021/09/11 03:52:45;;;;;;;996.67;896.47;;;;;;;;;;5018057;28;20057;-80
2021/09/11 03:55:11;;;;;;;995.60;893.70;;;;;;;;;;5006927;28;20424;-77
2021/09/11 03:57:37;;;;;;;985.08;885.33;;;;;;;;;;5027057;28;20117;-79
2021/09/11 04:00:03;;;;;;;987.33;887.47;;;;;;;;;;5025155;28;20120;-79
2021/09/11 04:02:29;;;;;;;985.72;885.92;;;;;;;;;;5021411;28;20025;-78
2021/09/11 04:04:55;;;;;;;986.13;886.58;;;;;;;;;;5028790;28;20033;-79
2021/09/11 04:07:21;;;;;;;988.92;889.00;;;;;;;;;;5012222;28;20124;-78
2021/09/11 04:09:47;;;;;;;984.58;885.00;;;;;;;;;;5009519;28;20025;-78
2021/09/11 04:12:18;;;;;;;987.85;888.03;;;;;;;;;;5030260;28;20577;-79
2021/09/11 04:14:44;;;;;;;982.53;883.05;;;;;;;;;;5010617;28;20038;-79
2021/09/11 04:17:10;;;;;;;977.63;878.05;;;;;;;;;;5011424;28;20559;-78
2021/09/11 04:19:36;;;;;;;986.28;886.53;;;;;;;;;;5019912;28;20041;-78
2021/09/11 04:22:02;;;;;;;982.58;882.88;;;;;;;;;;5012823;28;20021;-79
2021/09/11 04:24:28;;;;;;;981.25;881.63;;;;;;;;;;5027207;28;20044;-78
2021/09/11 04:26:54;;;;;;;979.42;880.22;;;;;;;;;;5019477;28;20037;-79
2021/09/11 04:29:20;;;;;;;984.75;885.13;;;;;;;;;;5029341;28;20087;-78
2021/09/11 04:31:46;;;;;;;987.47;887.58;;;;;;;;;;5017740;28;20512;-79
2021/09/11 04:34:12;;;;;;;980.70;881.30;;;;;;;;;;5028364;28;20036;-78
2021/09/11 04:36:38;;;;;;;984.25;884.70;;;;;;;;;;5019570;28;20021;-78
2021/09/11 04:39:04;;;;;;;985.28;885.58;;;;;;;;;;5016724;28;20037;-78
2021/09/11 04:41:30;;;;;;;984.17;884.75;;;;;;;;;;5028702;28;20870;-79
2021/09/11 04:43:56;;;;;;;979.78;880.53;;;;;;;;;;5016219;28;20033;-79
2021/09/11 04:46:22;;;;;;;979.97;880.67;;;;;;;;;;5012913;28;20345;-78
2021/09/11 04:48:48;;;;;;;985.83;886.13;;;;;;;;;;5015558;28;20596;-78
2021/09/11 04:51:14;;;;;;;978.75;879.60;;;;;;;;;;5018957;28;20049;-77
2021/09/11 04:53:40;;;;;;;981.40;882.03;;;;;;;;;;5026017;28;20033;-78
2021/09/11 04:56:06;;;;;;;980.80;881.40;;;;;;;;;;5007904;28;20442;-79
2021/09/11 04:58:32;;;;;;;985.50;885.90;;;;;;;;;;5019788;28;20128;-78
2021/09/11 05:00:58;;;;;;;987.05;887.25;;;;;;;;;;5019390;28;20124;-79
2021/09/11 05:03:24;;;;;;;977.72;878.47;;;;;;;;;;5019369;28;20172;-78
2021/09/11 05:05:53;;;;;;;985.53;885.95;;;;;;;;;;5020638;28;20029;-79
2021/09/11 05:08:19;;;;;;;986.53;886.83;;;;;;;;;;5027509;28;20068;-79
2021/09/11 05:10:45;;;;;;;982.15;882.58;;;;;;;;;;5020426;28;20039;-79
2021/09/11 05:13:12;;;;;;;986.25;886.38;;;;;;;;;;5006933;28;20025;-78
2021/09/11 05:15:37;;;;;;;985.30;885.88;;;;;;;;;;5022208;28;20027;-79
2021/09/11 05:18:03;;;;;;;983.85;884.42;;;;;;;;;;5010641;28;20022;-79
2021/09/11 05:20:29;;;;;;;974.08;875.20;;;;;;;;;;5019009;28;20028;-78
2021/09/11 05:22:57;;;;;;;986.83;887.33;;;;;;;;;;5026891;28;20029;-77
2021/09/11 05:25:23;;;;;;;984.72;885.35;;;;;;;;;;5027077;28;20017;-78
2021/09/11 05:27:49;;;;;;;984.95;885.20;;;;;;;;;;5016412;28;20125;-78
2021/09/11 05:30:17;;;;;;;988.97;889.03;;;;;;;;;;5010672;28;20040;-77
2021/09/11 05:32:43;;;;;;;975.83;876.75;;;;;;;;;;5028134;28;20025;-79
2021/09/11 05:35:09;;;;;;;985.53;886.03;;;;;;;;;;5009266;28;20405;-77
2021/09/11 05:37:35;;;;;;;983.13;883.72;;;;;;;;;;5013692;28;20025;-78
2021/09/11 05:40:01;;;;;;;993.25;893.45;;;;;;;;;;5013200;28;20435;-77
2021/09/11 05:42:27;;;;;;;989.03;889.47;;;;;;;;;;5027359;28;20025;-77
2021/09/11 05:44:55;;;;;;;982.70;883.10;;;;;;;;;;5026827;28;20041;-77
2021/09/11 05:47:21;;;;;;;987.90;888.10;;;;;;;;;;5026473;28;20049;-77
2021/09/11 05:49:47;;;;;;;990.33;890.55;;;;;;;;;;5025498;28;20548;-77
2021/09/11 05:52:13;;;;;;;990.47;890.92;;;;;;;;;;5011432;28;20106;-76
2021/09/11 05:54:39;;;;;;;996.28;895.85;;;;;;;;;;5019119;28;20091;-76
2021/09/11 05:57:05;;;;;;;993.42;893.55;;;;;;;;;;5009475;28;20017;-77
2021/09/11 05:59:31;;;;;;;995.25;894.55;;;;;;;;;;5012072;28;20440;-77
2021/09/11 06:01:57;;;;;;;989.05;889.72;;;;;;;;;;5023880;28;20030;-76
2021/09/11 06:04:23;;;;;;;992.17;892.17;;;;;;;;;;5027084;28;20033;-76
2021/09/11 06:06:49;;;;;;;996.75;896.83;;;;;;;;;;5008553;28;20056;-76
2021/09/11 06:09:15;;;;;;;996.88;897.17;;;;;;;;;;5025210;28;20033;-76
2021/09/11 06:11:41;;;;;;;991.45;891.75;;;;;;;;;;5025500;28;20076;-78
2021/09/11 06:14:07;;;;;;;998.83;898.85;;;;;;;;;;5008985;28;20421;-75
2021/09/11 06:16:33;;;;;;;997.15;897.25;;;;;;;;;;5011128;28;20087;-76
2021/09/11 06:18:59;;;;;;;1001.25;900.97;;;;;;;;;;5023736;28;20033;-77
2021/09/11 06:21:25;;;;;;;1001.65;901.58;;;;;;;;;;5026132;28;20115;-76
2021/09/11 06:23:51;;;;;;;1002.83;902.70;;;;;;;;;;5026312;28;20029;-75
2021/09/11 06:26:17;;;;;;;999.20;899.33;;;;;;;;;;5025546;28;20481;-76
2021/09/11 06:28:42;;;;;;;992.58;892.97;;;;;;;;;;5025936;28;20501;-75
2021/09/11 06:31:08;;;;;;;994.65;894.72;;;;;;;;;;5014441;28;20124;-76
2021/09/11 06:33:34;;;;;;;1003.40;903.20;;;;;;;;;;5006601;28;20025;-77
2021/09/11 06:36:00;;;;;;;1009.35;909.00;;;;;;;;;;5019609;28;20052;-75
2021/09/11 06:38:26;;;;;;;1002.95;902.78;;;;;;;;;;5024977;28;20025;-75
2021/09/11 06:40:52;;;;;;;1011.42;911.10;;;;;;;;;;5027025;28;20025;-74
2021/09/11 06:43:18;;;;;;;1009.53;909.30;;;;;;;;;;5015799;28;20425;-75
2021/09/11 06:45:44;;;;;;;1007.20;907.05;;;;;;;;;;5014739;28;20045;-75
2021/09/11 06:48:10;;;;;;;1007.78;907.58;;;;;;;;;;5016861;28;20077;-75
2021/09/11 06:50:36;;;;;;;1011.30;910.78;;;;;;;;;;5015436;28;20604;-76
2021/09/11 06:53:02;;;;;;;1005.80;905.75;;;;;;;;;;5030552;28;20084;-75
2021/09/11 06:55:28;;;;;;;1020.63;919.80;;;;;;;;;;5008693;28;20037;-76
2021/09/11 06:57:54;;;;;;;1014.42;914.13;;;;;;;;;;5030769;28;20028;-76
2021/09/11 07:00:20;;;;;;;1016.05;915.08;;;;;;;;;;5010468;28;20033;-77
2021/09/11 07:02:46;;;;;;;1015.30;914.85;;;;;;;;;;5011828;28;20473;-76
2021/09/11 07:05:12;;;;;;;1019.08;918.47;;;;;;;;;;5032230;28;20021;-76
2021/09/11 07:07:38;;;;;;;1014.72;914.25;;;;;;;;;;5026340;28;20022;-76
2021/09/11 07:10:06;;;;;;;1006.60;906.05;;;;;;;;;;5029602;28;20370;-77
2021/09/11 07:12:32;;;;;;;1017.47;916.67;;;;;;;;;;5028862;28;20032;-76
2021/09/11 07:15:01;;;;;;;1020.35;919.72;;;;;;;;;;5026551;28;20056;-75
2021/09/11 07:17:27;;;;;;;1006.05;906.10;;;;;;;;;;5028405;28;20049;-76
2021/09/11 07:19:53;;;;;;;1015.55;915.10;;;;;;;;;;5027570;28;20324;-77
2021/09/11 07:22:19;;;;;;;1021.03;920.30;;;;;;;;;;5008690;28;20026;-77
2021/09/11 07:24:45;;;;;;;1009.65;909.38;;;;;;;;;;5026138;28;20037;-76
2021/09/11 07:27:11;;;;;;;1021.20;920.35;;;;;;;;;;5008430;28;20037;-77
2021/09/11 07:29:37;;;;;;;1015.47;914.70;;;;;;;;;;5023876;28;20443;-77
2021/09/11 07:32:04;;;;;;;1018.47;917.83;;;;;;;;;;5020938;28;20025;-76
2021/09/11 07:34:31;;;;;;;1018.03;917.22;;;;;;;;;;5028940;28;20070;-76
2021/09/11 07:36:57;;;;;;;1015.25;914.70;;;;;;;;;;5010563;28;20026;-77
2021/09/11 07:39:22;;;;;;;1017.28;916.83;;;;;;;;;;5030842;28;20096;-75
2021/09/11 07:41:48;;;;;;;1023.25;922.55;;;;;;;;;;5017404;28;20450;-75
2021/09/11 07:44:15;;;;;;;1016.80;916.33;;;;;;;;;;5023940;28;20408;-77
2021/09/11 07:46:41;;;;;;;1013.60;913.35;;;;;;;;;;5032193;28;20038;-77
2021/09/11 07:49:06;;;;;;;1020.50;919.88;;;;;;;;;;5020487;28;20477;-76
2021/09/11 07:51:32;;;;;;;1015.50;915.20;;;;;;;;;;5014199;28;20022;-76
2021/09/11 07:54:01;;;;;;;1024.72;923.70;;;;;;;;;;5007374;28;20038;-77
2021/09/11 07:56:27;;;;;;;1030.22;929.22;;;;;;;;;;5009541;28;20025;-79
2021/09/11 07:58:53;;;;;;;1029.00;927.95;;;;;;;;;;5021783;28;20504;-77
2021/09/11 08:01:19;;;;;;;1025.10;924.42;;;;;;;;;;5022872;28;20022;-78
2021/09/11 08:03:45;;;;;;;1041.35;939.85;;;;;;;;;;5023843;28;20084;-78
2021/09/11 08:06:11;;;;;;;1042.18;940.90;;;;;;;;;;5007195;28;20263;-79
2021/09/11 08:08:37;;;;;;;1042.60;941.33;;;;;;;;;;5024264;28;20029;-77
2021/09/11 08:11:06;;;;;;;1043.88;942.50;;;;;;;;;;5007737;28;20037;-75
2021/09/11 08:13:32;;;;;;;1051.95;950.22;;;;;;;;;;5024701;28;20030;-76
2021/09/11 08:15:59;;;;;;;1050.05;948.38;;;;;;;;;;5025123;28;20026;-77
2021/09/11 08:18:25;;;;;;;1056.50;954.58;;;;;;;;;;5027621;28;20460;-77
2021/09/11 08:20:53;;;;;;;1056.20;954.47;;;;;;;;;;5029213;28;20413;-77
2021/09/11 08:23:20;;;;;;;1060.40;958.40;;;;;;;;;;5008749;28;20029;-77
2021/09/11 08:25:46;;;;;;;1060.25;958.40;;;;;;;;;;5026962;28;20029;-77
2021/09/11 08:28:14;;;;;;;1067.35;964.90;;;;;;;;;;5022738;28;20025;-76
2021/09/11 08:30:40;;;;;;;1068.00;965.78;;;;;;;;;;5022405;28;20246;-77
2021/09/11 08:33:06;;;;;;;1074.45;971.88;;;;;;;;;;5004585;28;20477;-77
2021/09/11 08:35:32;;;;;;;1073.82;971.45;;;;;;;;;;5003094;28;20068;-77
2021/09/11 08:37:58;;;;;;;1071.13;968.92;;;;;;;;;;5022311;28;20627;-77
2021/09/11 08:40:24;;;;;;;1073.57;971.30;;;;;;;;;;5023820;28;20105;-76
2021/09/11 08:42:50;;;;;;;1071.18;968.90;;;;;;;;;;5022472;28;20029;-76
2021/09/11 08:45:16;;;;;;;1077.50;974.95;;;;;;;;;;5024424;28;20034;-77
2021/09/11 08:47:43;;;;;;;1071.00;968.60;;;;;;;;;;5023111;28;20091;-77
2021/09/11 08:50:10;;;;;;;1070.80;968.58;;;;;;;;;;5006052;28;20051;-76
2021/09/11 08:52:36;;;;;;;1074.80;972.38;;;;;;;;;;5004528;28;20037;-76
2021/09/11 08:55:02;;;;;;;1072.60;970.20;;;;;;;;;;5003675;28;20068;-76
2021/09/11 08:57:30;;;;;;;1071.13;968.85;;;;;;;;;;5008127;28;20036;-77
2021/09/11 08:59:57;;;;;;;1071.32;968.90;;;;;;;;;;5002074;28;20089;-77
2021/09/11 09:02:24;;;;;;;1068.90;966.83;;;;;;;;;;5006159;28;20026;-77
2021/09/11 09:04:50;;;;;;;1073.30;970.83;;;;;;;;;;5005707;28;20116;-77
2021/09/11 09:07:35;;;;;;;1078.95;976.50;;;;;;;;;;5020526;28;20052;-77
2021/09/11 09:10:03;;;;;;;1077.55;975.00;;;;;;;;;;5021678;28;20040;-77
2021/09/11 09:12:33;;;;;;;1063.80;962.05;;;;;;;;;;5006315;28;20025;-76
2021/09/11 09:14:59;;;;;;;;;;;;;;;;;;5022856;28;20224;-77
2021/09/11 09:17:42;;;;;;;1053.50;951.85;;;;;;;;;;5008202;28;19928;-75
2021/09/11 09:20:09;;;;;;;1060.25;958.35;;;;;;;;;;5004657;28;20125;-76
2021/09/11 09:22:35;;;;;;;1072.82;970.50;;;;;;;;;;5021413;28;20509;-77
2021/09/11 09:25:01;;;;;;;1071.32;969.10;;;;;;;;;;5025332;28;20025;-76
2021/09/11 09:27:27;;;;;;;1078.43;975.80;;;;;;;;;;5015486;28;20253;-76
2021/09/11 09:30:00;;;;;;;1081.18;978.58;;;;;;;;;;5016542;28;20117;-78
2021/09/11 09:32:36;;;;;;;1074.97;972.72;;;;;;;;;;5025931;28;20033;-76
2021/09/11 09:35:02;;;;;;;1078.10;975.53;;;;;;;;;;5014753;28;20030;-77
2021/09/11 09:37:28;;;;;;;1089.22;986.05;;;;;;;;;;5010738;28;20164;-77
2021/09/11 09:39:54;;;;;;;1088.13;984.58;;;;;;;;;;5007467;28;20108;-78
2021/09/11 09:42:20;;;;;;;1094.75;991.38;;;;;;;;;;5004236;28;20021;-78
2021/09/11 09:44:47;;;;;;;1095.80;992.35;;;;;;;;;;5020669;28;20068;-80
2021/09/11 09:47:14;;;;;;;1098.95;995.05;;;;;;;;;;5007831;28;20032;-78
2021/09/11 09:49:40;;;;;;;1096.05;992.90;;;;;;;;;;5026975;28;20064;-79
2021/09/11 09:52:06;;;;;;;1098.40;994.90;;;;;;;;;;5011479;28;20485;-78
2021/09/11 09:54:32;;;;;;;1096.05;992.78;;;;;;;;;;5024612;28;20041;-77
2021/09/11 09:56:58;;;;;;;1105.03;998.67;;;;;;;;;;5023853;28;20025;-77
2021/09/11 09:59:25;;;;;;;1105.93;998.92;;;;;;;;;;5027327;28;20426;-77
2021/09/11 10:01:51;;;;;;;1107.93;999.40;;;;;;;;;;5019590;28;20029;-78
2021/09/11 10:04:21;;;;;;;1104.65;998.63;;;;;;;;;;5003231;28;20433;-78
2021/09/11 10:06:56;;;;;;;1107.60;999.05;;;;;;;;;;5010636;28;20151;-77
2021/09/11 10:09:23;;;;;;;1112.22;999.90;;;;;;;;;;5023150;28;20022;-78
2021/09/11 10:11:50;;;;;;;1112.72;999.90;;;;;;;;;;5020032;28;20485;-79
2021/09/11 10:14:19;;;;;;;1122.07;999.90;;;;;;;;;;5022882;28;20029;-78
2021/09/11 10:16:46;;;;;;;1117.88;999.90;;;;;;;;;;5019339;28;20389;-80
2021/09/11 10:19:15;;;;;;;1115.25;999.90;;;;;;;;;;5008863;28;20082;-77
2021/09/11 10:21:41;;;;;;;1117.63;999.90;;;;;;;;;;5004677;28;20032;-78
2021/09/11 10:24:11;;;;;;;1117.40;999.90;;;;;;;;;;5022109;28;20034;-78
2021/09/11 10:26:37;;;;;;;;;;;;;;;;;;5013486;28;20033;-79
2021/09/11 10:29:23;;;;;;;1089.55;986.65;;;;;;;;;;5022456;28;19932;-77
2021/09/11 10:31:56;;;;;;;1108.47;999.22;;;;;;;;;;5029317;28;20030;-79
2021/09/11 10:34:43;;;;;;;1112.80;999.90;;;;;;;;;;5024210;28;20472;-79
2021/09/11 10:37:09;;;;;;;1110.97;999.90;;;;;;;;;;5022615;28;20009;-77
2021/09/11 10:39:37;;;;;;;1117.53;999.90;;;;;;;;;;5026469;28;20049;-77
2021/09/11 10:42:04;;;;;;;1120.93;999.90;;;;;;;;;;5018679;28;20227;-76
2021/09/11 10:44:31;;;;;;;1117.38;999.90;;;;;;;;;;5017598;28;20049;-78
2021/09/11 10:46:57;;;;;;;1126.20;999.90;;;;;;;;;;5017139;28;20055;-77
2021/09/11 10:49:30;;;;;;;1128.95;999.90;;;;;;;;;;5017431;28;20496;-77
2021/09/11 10:52:10;;;;;;;1128.55;999.90;;;;;;;;;;5014455;28;20478;-79
2021/09/11 10:54:40;;;;;;;1120.07;999.90;;;;;;;;;;5024347;28;20044;-80
2021/09/11 10:57:09;;;;;;;1120.47;999.90;;;;;;;;;;5025783;28;20013;-79
2021/09/11 10:59:36;;;;;;;1133.53;999.90;;;;;;;;;;5036311;28;20481;-80
2021/09/11 11:02:04;;;;;;;1127.47;999.90;;;;;;;;;;5016943;28;20164;-79
2021/09/11 11:04:35;;;;;;;1137.30;999.90;;;;;;;;;;5012444;28;20037;-76
2021/09/11 11:07:05;;;;;;;1146.45;999.90;;;;;;;;;;5015392;28;20033;-77
2021/09/11 11:09:31;;;;;;;;;;;;;;;;;;5023683;28;20034;-77
2021/09/11 11:11:57;;;;;;;1128.60;999.90;;;;;;;;;;5019924;28;19919;-79
2021/09/11 11:14:23;;;;;;;1143.72;999.90;;;;;;;;;;5021203;28;20101;-80
2021/09/11 11:16:50;;;;;;;1161.22;999.90;;;;;;;;;;5022456;28;20021;-78
2021/09/11 11:19:21;;;;;;;1166.70;999.90;;;;;;;;;;5015971;28;20116;-76
2021/09/11 11:21:58;;;;;;;1160.93;999.90;;;;;;;;;;5014954;28;20037;-77
2021/09/11 11:24:25;;;;;;;1151.30;999.90;;;;;;;;;;5023995;28;20108;-77
2021/09/11 11:26:52;;;;;;;1163.28;999.90;;;;;;;;;;4994258;28;20042;-78
2021/09/11 11:29:22;;;;;;;1152.25;999.90;;;;;;;;;;5011498;28;20064;-77
2021/09/11 11:31:49;;;;;;;1158.18;999.90;;;;;;;;;;5003915;28;20025;-78
2021/09/11 11:34:20;;;;;;;1157.55;999.90;;;;;;;;;;5009226;28;20393;-78
2021/09/11 11:36:47;;;;;;;1160.07;999.90;;;;;;;;;;5014293;28;20033;-80
2021/09/11 11:39:19;;;;;;;1153.90;999.90;;;;;;;;;;5015021;28;20055;-79
2021/09/11 11:41:56;;;;;;;1154.32;999.90;;;;;;;;;;5009274;28;20109;-78
2021/09/11 11:44:22;;;;;;;1157.78;999.90;;;;;;;;;;5011344;28;20076;-78
2021/09/11 11:46:53;;;;;;;1147.47;999.90;;;;;;;;;;5028543;28;20605;-77
2021/09/11 11:49:20;;;;;;;1147.03;999.90;;;;;;;;;;5019448;28;20025;-79
2021/09/11 11:51:53;;;;;;;1152.30;999.90;;;;;;;;;;5006839;28;20080;-78
2021/09/11 11:54:19;;;;;;;1149.70;999.90;;;;;;;;;;5011664;28;20053;-78
2021/09/11 11:56:50;;;;;;;1142.43;999.90;;;;;;;;;;5008280;28;20021;-78
2021/09/11 11:59:22;;;;;;;1141.35;999.90;;;;;;;;;;5015632;28;20481;-79
2021/09/11 12:01:49;;;;;;;1144.45;999.90;;;;;;;;;;5011354;28;20442;-80
2021/09/11 12:04:15;;;;;;;1145.72;999.90;;;;;;;;;;5019300;28;20075;-80
2021/09/11 12:06:48;;;;;;;1144.55;999.90;;;;;;;;;;5011290;28;20531;-80
2021/09/11 12:09:26;;;;;;;1138.60;999.90;;;;;;;;;;5012239;28;20137;-79
2021/09/11 12:12:02;;;;;;;1135.30;999.90;;;;;;;;;;5023657;28;20053;-78
2021/09/11 12:14:29;;;;;;;1139.75;999.90;;;;;;;;;;5011823;28;20083;-78
2021/09/11 12:16:57;;;;;;;1128.30;999.90;;;;;;;;;;5011991;28;20389;-79
2021/09/11 12:19:32;;;;;;;1134.57;999.90;;;;;;;;;;5018706;28;20381;-80
2021/09/11 12:21:58;;;;;;;1129.97;999.90;;;;;;;;;;5025640;28;20092;-79
2021/09/11 12:24:28;;;;;;;1119.47;999.90;;;;;;;;;;5008744;28;20093;-80
2021/09/11 12:27:08;;;;;;;1122.93;999.90;;;;;;;;;;5015717;28;20030;-79
2021/09/11 12:29:34;;;;;;;1126.18;999.90;;;;;;;;;;5022189;28;20524;-80
2021/09/11 12:32:05;;;;;;;1123.38;999.90;;;;;;;;;;5001365;28;20025;-80
2021/09/11 12:34:31;;;;;;;1126.65;999.90;;;;;;;;;;5018237;28;20040;-78
2021/09/11 12:36:57;;;;;;;1116.85;999.90;;;;;;;;;;5011060;28;20029;-76
2021/09/11 12:39:24;;;;;;;1128.60;999.90;;;;;;;;;;5026396;28;20403;-76
2021/09/11 12:41:51;;;;;;;1121.70;999.90;;;;;;;;;;5026879;28;20477;-75
2021/09/11 12:44:18;;;;;;;1115.53;999.90;;;;;;;;;;5025934;28;20099;-76
2021/09/11 12:46:57;;;;;;;1114.13;999.90;;;;;;;;;;5002847;28;20428;-76
2021/09/11 12:49:24;;;;;;;1104.07;998.03;;;;;;;;;;5027774;28;20029;-76
2021/09/11 12:51:51;;;;;;;1102.72;997.45;;;;;;;;;;5003059;28;20029;-76
2021/09/11 12:54:17;;;;;;;1115.53;999.90;;;;;;;;;;5027050;28;20083;-75
2021/09/11 12:56:43;;;;;;;1112.13;999.90;;;;;;;;;;5023238;28;20031;-76
2021/09/11 12:59:11;;;;;;;1118.05;999.90;;;;;;;;;;5019219;28;20363;-75
2021/09/11 13:01:37;;;;;;;1125.90;999.90;;;;;;;;;;5010541;28;20062;-75
2021/09/11 13:04:04;;;;;;;1117.00;999.90;;;;;;;;;;5017172;28;20040;-75
2021/09/11 13:06:30;;;;;;;1122.63;999.90;;;;;;;;;;5018865;28;20041;-75
2021/09/11 13:08:56;;;;;;;1116.00;999.90;;;;;;;;;;5004292;28;20042;-75
2021/09/11 13:11:22;;;;;;;1121.03;999.90;;;;;;;;;;5008626;28;20363;-75
2021/09/11 13:13:48;;;;;;;1123.35;999.90;;;;;;;;;;5026494;28;20025;-76
2021/09/11 13:16:14;;;;;;;1123.18;999.90;;;;;;;;;;5007939;28;20424;-75
2021/09/11 13:18:42;;;;;;;1125.50;999.90;;;;;;;;;;5021114;28;20057;-75
2021/09/11 13:21:09;;;;;;;1118.47;999.90;;;;;;;;;;5023446;28;20112;-77
2021/09/11 13:23:36;;;;;;;1123.60;999.90;;;;;;;;;;5014659;28;20136;-77
2021/09/11 13:26:03;;;;;;;1120.72;999.90;;;;;;;;;;5021512;28;20055;-76
2021/09/11 13:28:34;;;;;;;1127.88;999.90;;;;;;;;;;5029196;28;20052;-77
2021/09/11 13:31:00;;;;;;;1121.45;999.90;;;;;;;;;;5018699;28;20037;-76
2021/09/11 13:33:26;;;;;;;1117.47;999.90;;;;;;;;;;5014701;28;20040;-77
2021/09/11 13:35:52;;;;;;;1115.70;999.90;;;;;;;;;;5018041;28;20318;-77
2021/09/11 13:38:19;;;;;;;1128.75;999.90;;;;;;;;;;5025517;28;20105;-77
2021/09/11 13:40:45;;;;;;;1125.25;999.90;;;;;;;;;;5039241;28;20041;-77
2021/09/11 13:43:11;;;;;;;1122.30;999.90;;;;;;;;;;5004431;28;20038;-77